createdAt,value
2022-08-04T01:56:56.999Z,22.30
2022-08-04T02:12:05.801Z,22.70
2022-08-04T02:14:52.304Z,22.80
2022-08-04T02:17:27.503Z,22.70
2022-08-04T02:20:06.396Z,22.70
2022-08-04T02:22:47.747Z,22.60
2022-08-04T02:25:25.773Z,22.70
2022-08-04T02:28:18.223Z,22.60
2022-08-04T02:30:58.560Z,22.50
2022-08-04T02:33:37.087Z,22.40
2022-08-04T02:36:07.519Z,22.40
2022-08-04T02:38:49.404Z,22.30
2022-08-04T02:41:19.021Z,22.30
2022-08-04T02:43:52.869Z,22.10
2022-08-04T02:46:23.926Z,22.10
2022-08-04T02:48:54.550Z,22.30
2022-08-04T02:51:26.562Z,22.40
2022-08-04T02:53:56.897Z,22.50
2022-08-04T02:56:26.650Z,22.50
2022-08-04T02:59:00.618Z,22.60
2022-08-04T03:01:29.407Z,22.60
2022-08-04T03:04:24.136Z,22.40
2022-08-04T03:07:35.067Z,22.20
2022-08-04T03:10:35.418Z,21.90
2022-08-04T03:13:34.047Z,21.60
2022-08-04T03:16:30.019Z,21.40
2022-08-04T03:19:43.665Z,21.20
2022-08-04T03:22:32.298Z,21.30
2022-08-04T03:25:29.949Z,21.10
2022-08-04T03:28:18.893Z,21.00
2022-08-04T03:31:07.245Z,20.80
2022-08-04T03:33:52.483Z,20.70
2022-08-04T03:37:09.428Z,20.50
2022-08-04T03:40:13.780Z,20.30
2022-08-04T03:43:58.917Z,20.30
2022-08-04T03:46:48.420Z,20.20
2022-08-04T03:49:47.650Z,20.00
2022-08-04T03:52:54.645Z,19.90
2022-08-04T03:55:41.127Z,19.80
2022-08-04T03:58:44.646Z,19.70
2022-08-04T04:01:27.927Z,19.70
2022-08-04T04:04:24.599Z,19.70
2022-08-04T04:07:37.764Z,19.60
2022-08-04T04:10:26.573Z,19.70
2022-08-04T04:13:24.295Z,19.60
2022-08-04T04:16:08.806Z,19.50
2022-08-04T04:18:58.227Z,19.40
2022-08-04T04:21:39.911Z,19.30
2022-08-04T04:24:35.782Z,19.40
2022-08-04T04:27:15.159Z,19.30
2022-08-04T04:30:01.972Z,19.30
2022-08-04T04:32:45.050Z,19.50
2022-08-04T04:35:27.408Z,19.50
2022-08-04T04:38:22.785Z,19.50
2022-08-04T04:41:01.470Z,19.40
2022-08-04T04:44:03.367Z,19.40
2022-08-04T04:46:42.539Z,19.40
2022-08-04T04:49:21.994Z,19.50
2022-08-04T04:51:55.024Z,19.70
2022-08-04T04:54:32.949Z,19.80
2022-08-04T04:57:10.943Z,19.80
2022-08-04T04:59:43.974Z,19.80
2022-08-04T05:02:35.359Z,19.80
2022-08-04T05:05:39.776Z,19.80
2022-08-04T05:08:43.320Z,19.90
2022-08-04T05:11:47.365Z,20.00
2022-08-04T05:14:37.546Z,20.10
2022-08-04T05:17:17.350Z,20.10
2022-08-04T05:19:56.247Z,20.20
2022-08-04T05:22:31.318Z,20.50
2022-08-04T05:25:07.254Z,20.70
2022-08-04T05:27:42.025Z,20.80
2022-08-04T05:30:13.936Z,21.00
2022-08-04T05:32:53.934Z,21.10
2022-08-04T05:35:52.111Z,21.20
2022-08-04T05:38:23.948Z,21.40
2022-08-04T05:40:56.288Z,21.60
2022-08-04T05:43:26.433Z,21.70
2022-08-04T05:45:57.971Z,21.90
2022-08-04T05:48:27.784Z,22.10
2022-08-04T05:51:00.722Z,22.30
2022-08-04T05:53:30.774Z,22.30
2022-08-04T05:56:00.926Z,22.40
2022-08-04T05:58:36.755Z,22.50
2022-08-04T06:01:08.912Z,22.50
2022-08-04T06:03:38.965Z,22.60
2022-08-04T06:06:09.902Z,22.60
2022-08-04T06:08:38.495Z,22.70
2022-08-04T06:11:09.719Z,22.80
2022-08-04T06:13:49.957Z,22.80
2022-08-04T06:16:29.029Z,23.00
2022-08-04T06:20:00.446Z,23.10
2022-08-04T06:21:58.052Z,23.20
2022-08-04T06:24:34.373Z,23.40
2022-08-04T06:27:09.795Z,23.60
2022-08-04T06:29:51.426Z,23.80
2022-08-04T06:32:33.709Z,24.10
2022-08-04T06:35:06.441Z,24.50
2022-08-04T06:37:42.918Z,24.70
2022-08-04T06:40:29.992Z,24.90
2022-08-04T06:43:06.056Z,25.10
2022-08-04T06:45:37.533Z,25.40
2022-08-04T06:48:11.160Z,25.50
2022-08-04T06:51:25.679Z,25.70
2022-08-04T06:53:31.230Z,25.80
2022-08-04T06:56:02.946Z,26.00
2022-08-04T06:58:34.560Z,26.20
2022-08-04T07:01:04.302Z,26.30
2022-08-04T07:03:35.075Z,26.40
2022-08-04T07:06:06.204Z,26.50
2022-08-04T07:08:45.170Z,26.60
2022-08-04T07:11:14.571Z,26.80
2022-08-04T07:13:45.578Z,26.90
2022-08-04T07:16:16.124Z,27.00
2022-08-04T07:18:46.469Z,27.10
2022-08-04T07:21:24.564Z,27.20
2022-08-04T07:23:56.777Z,27.40
2022-08-04T07:26:31.763Z,27.40
2022-08-04T07:29:01.035Z,27.60
2022-08-04T07:31:33.511Z,27.60
2022-08-04T07:34:21.255Z,27.60
2022-08-04T07:36:55.741Z,27.70
2022-08-04T07:39:28.114Z,27.80
2022-08-04T07:42:01.487Z,27.90
2022-08-04T07:44:33.507Z,27.90
2022-08-04T07:47:03.347Z,27.80
2022-08-04T07:49:55.843Z,27.70
2022-08-04T07:52:25.480Z,27.80
2022-08-04T07:54:55.557Z,27.80
2022-08-04T07:57:40.259Z,27.80
2022-08-04T08:00:41.245Z,27.90
2022-08-04T08:03:10.963Z,28.00
2022-08-04T08:06:16.922Z,28.20
2022-08-04T08:08:31.254Z,28.40
2022-08-04T08:11:00.221Z,28.70
2022-08-04T08:13:33.170Z,28.90
2022-08-04T08:16:02.687Z,29.10
2022-08-04T08:18:31.782Z,29.20
2022-08-04T08:21:02.262Z,29.40
2022-08-04T08:23:33.480Z,29.50
2022-08-04T08:26:02.505Z,29.60
2022-08-04T08:28:31.687Z,29.70
2022-08-04T08:31:00.604Z,29.90
2022-08-04T08:33:29.731Z,30.00
2022-08-04T08:36:06.734Z,30.20
2022-08-04T08:38:42.343Z,30.30
2022-08-04T08:41:51.984Z,30.50
2022-08-04T08:44:59.569Z,30.70
2022-08-04T08:48:05.487Z,30.90
2022-08-04T08:51:02.196Z,31.00
2022-08-04T08:53:49.944Z,31.10
2022-08-04T08:56:33.260Z,31.30
2022-08-04T08:59:20.166Z,31.70
2022-08-04T09:02:04.550Z,32.10
2022-08-04T09:05:04.245Z,32.40
2022-08-04T09:07:55.267Z,32.60
2022-08-04T09:10:33.503Z,32.80
2022-08-04T09:13:07.171Z,32.80
2022-08-04T09:15:38.968Z,32.60
2022-08-04T09:18:15.143Z,32.50
2022-08-04T09:20:50.127Z,32.30
2022-08-04T09:23:27.175Z,32.20
2022-08-04T09:26:04.718Z,32.00
2022-08-04T09:28:53.938Z,31.90
2022-08-04T09:31:51.376Z,31.70
2022-08-04T09:34:29.325Z,32.10
2022-08-04T09:37:06.418Z,32.60
2022-08-04T09:39:44.507Z,32.70
2022-08-04T09:42:34.153Z,33.10
2022-08-04T09:45:19.568Z,33.60
2022-08-04T09:48:00.274Z,34.10
2022-08-04T09:50:36.370Z,34.70
2022-08-04T09:53:21.122Z,35.00
2022-08-04T09:56:03.505Z,35.20
2022-08-04T09:58:55.515Z,35.50
2022-08-04T10:01:27.962Z,36.10
2022-08-04T10:04:02.210Z,36.00
2022-08-04T10:06:49.635Z,35.90
2022-08-04T10:09:36.032Z,36.40
2022-08-04T10:15:27.884Z,36.60
2022-08-04T10:18:17.631Z,36.10
2022-08-04T10:21:09.115Z,36.30
2022-08-04T10:24:00.480Z,36.30
2022-08-04T10:26:48.583Z,36.00
2022-08-04T10:29:24.612Z,36.10
2022-08-04T10:32:15.050Z,36.20
2022-08-04T10:35:09.105Z,36.20
2022-08-04T10:37:59.477Z,35.80
2022-08-04T10:40:41.235Z,35.60
2022-08-04T10:43:20.994Z,35.80
2022-08-04T10:45:58.452Z,35.90
2022-08-04T10:48:45.838Z,35.80
2022-08-04T10:51:25.729Z,35.80
2022-08-04T10:54:03.535Z,35.90
2022-08-04T10:56:37.837Z,36.10
2022-08-04T10:59:13.192Z,36.70
2022-08-04T11:02:01.398Z,37.80
2022-08-04T11:04:46.288Z,38.50
2022-08-04T11:07:17.073Z,38.20
2022-08-04T11:09:47.694Z,37.20
2022-08-04T11:12:22.092Z,37.00
2022-08-04T11:14:59.757Z,36.60
2022-08-04T11:17:34.602Z,36.50
2022-08-04T11:23:09.956Z,36.40
2022-08-04T11:25:51.935Z,36.10
2022-08-04T11:28:32.740Z,35.80
2022-08-04T11:31:07.052Z,35.60
2022-08-04T11:33:42.541Z,35.10
2022-08-04T11:36:22.288Z,34.70
2022-08-04T11:39:03.269Z,34.40
2022-08-04T11:41:42.851Z,34.60
2022-08-04T11:44:21.026Z,34.60
2022-08-04T11:46:55.266Z,34.60
2022-08-04T11:49:56.570Z,35.00
2022-08-04T11:52:25.665Z,35.40
2022-08-04T11:54:57.754Z,35.90
2022-08-04T11:57:35.995Z,35.60
2022-08-04T12:00:11.157Z,35.40
2022-08-04T12:03:30.319Z,35.70
2022-08-04T12:06:19.603Z,35.10
2022-08-04T12:09:10.241Z,34.50
2022-08-04T12:11:56.839Z,33.80
2022-08-04T12:14:45.751Z,33.10
2022-08-04T12:17:22.260Z,32.80
2022-08-04T12:20:05.186Z,32.20
2022-08-04T12:22:50.026Z,32.20
2022-08-04T12:25:29.937Z,32.60
2022-08-04T12:28:06.256Z,32.40
2022-08-04T12:30:58.528Z,33.00
2022-08-04T12:34:02.743Z,33.30
2022-08-04T12:36:35.367Z,33.10
2022-08-04T12:39:11.844Z,33.20
2022-08-04T12:41:47.358Z,33.50
2022-08-04T12:44:37.000Z,33.60
2022-08-04T12:47:27.809Z,33.30
2022-08-04T12:50:00.766Z,34.60
2022-08-04T12:52:59.167Z,36.20
2022-08-04T12:55:23.015Z,37.10
2022-08-04T12:57:56.396Z,37.70
2022-08-04T13:00:30.097Z,38.00
2022-08-04T13:03:10.572Z,37.40
2022-08-04T13:05:42.742Z,36.20
2022-08-04T13:08:13.466Z,35.50
2022-08-04T13:10:49.274Z,35.70
2022-08-04T13:13:24.119Z,35.90
2022-08-04T13:16:01.655Z,35.60
2022-08-04T13:18:32.877Z,35.80
2022-08-04T13:24:21.946Z,35.50
2022-08-04T13:27:04.183Z,35.00
2022-08-04T13:29:59.232Z,34.60
2022-08-04T13:30:24.089Z,35.50
2022-08-04T13:32:31.364Z,34.50
2022-08-04T13:35:04.057Z,34.90
2022-08-04T13:37:36.054Z,34.80
2022-08-04T13:40:07.118Z,34.70
2022-08-04T13:42:38.899Z,34.30
2022-08-04T13:45:11.316Z,34.30
2022-08-04T13:47:41.790Z,34.20
2022-08-04T13:50:23.879Z,34.70
2022-08-04T13:52:59.377Z,35.10
2022-08-04T13:55:31.724Z,35.40
2022-08-04T13:58:09.045Z,35.80
2022-08-04T14:00:49.896Z,36.30
2022-08-04T14:03:34.657Z,36.20
2022-08-04T14:06:26.597Z,36.00
2022-08-04T14:09:00.530Z,35.30
2022-08-04T14:12:09.822Z,34.30
2022-08-04T14:14:28.617Z,33.80
2022-08-04T14:17:00.954Z,33.80
2022-08-04T14:19:36.240Z,33.60
2022-08-04T14:22:06.261Z,33.30
2022-08-04T14:24:45.487Z,33.40
2022-08-04T14:27:16.421Z,33.40
2022-08-04T14:29:47.795Z,33.50
2022-08-04T14:32:21.571Z,33.60
2022-08-04T14:34:54.443Z,33.60
2022-08-04T14:37:23.788Z,33.10
2022-08-04T14:40:17.403Z,32.70
2022-08-04T14:42:55.504Z,32.60
2022-08-04T14:45:54.997Z,32.60
2022-08-04T14:49:10.316Z,32.20
2022-08-04T14:51:42.220Z,31.50
2022-08-04T14:54:24.157Z,31.40
2022-08-04T14:56:55.377Z,31.10
2022-08-04T14:59:25.135Z,31.00
2022-08-04T15:02:00.401Z,31.20
2022-08-04T15:04:33.003Z,31.20
2022-08-04T15:07:04.662Z,31.20
2022-08-04T15:09:34.769Z,31.20
2022-08-04T15:12:04.759Z,31.20
2022-08-04T15:14:36.814Z,31.20
2022-08-04T15:17:12.451Z,31.10
2022-08-04T15:19:59.809Z,30.90
2022-08-04T15:22:33.920Z,30.80
2022-08-04T15:25:02.783Z,30.60
2022-08-04T15:27:35.630Z,30.60
2022-08-04T15:30:08.180Z,30.50
2022-08-04T15:32:40.457Z,30.40
2022-08-04T15:35:14.181Z,30.40
2022-08-04T15:37:57.255Z,30.40
2022-08-04T15:40:45.416Z,30.40
2022-08-04T15:43:28.007Z,30.60
2022-08-04T15:46:34.921Z,30.90
2022-08-04T15:48:54.818Z,31.00
2022-08-04T15:51:33.025Z,30.70
2022-08-04T15:54:27.820Z,30.50
2022-08-04T15:57:03.491Z,30.20
2022-08-04T16:00:00.042Z,30.10
2022-08-04T16:02:49.776Z,29.90
2022-08-04T16:05:35.915Z,29.80
2022-08-04T16:08:20.437Z,29.70
2022-08-04T16:10:51.670Z,29.80
2022-08-04T16:13:24.491Z,30.10
2022-08-04T16:16:03.379Z,30.30
2022-08-04T16:18:44.275Z,30.60
2022-08-04T16:21:23.684Z,30.80
2022-08-04T16:24:17.907Z,31.90
2022-08-04T16:26:55.137Z,33.30
2022-08-04T16:29:30.214Z,33.60
2022-08-04T16:32:26.722Z,33.10
2022-08-04T16:35:00.852Z,33.40
2022-08-04T16:37:47.075Z,34.30
2022-08-04T16:40:37.467Z,34.80
2022-08-04T16:43:13.560Z,34.90
2022-08-04T16:46:02.385Z,35.20
2022-08-04T16:48:33.039Z,34.70
2022-08-04T16:51:06.826Z,34.80
2022-08-04T16:53:58.005Z,35.80
2022-08-04T16:56:36.838Z,36.10
2022-08-04T16:59:10.671Z,36.00
2022-08-04T17:01:48.124Z,36.00
2022-08-04T17:04:24.262Z,36.00
2022-08-04T17:07:00.388Z,35.30
2022-08-04T17:09:32.728Z,33.70
2022-08-04T17:12:03.158Z,33.30
2022-08-04T17:14:32.876Z,32.90
2022-08-04T17:17:04.626Z,32.70
2022-08-04T17:19:40.843Z,32.90
2022-08-04T17:22:14.665Z,33.50
2022-08-04T17:24:43.642Z,33.90
2022-08-04T17:28:19.952Z,33.40
2022-08-04T17:30:05.073Z,32.90
2022-08-04T17:32:36.798Z,32.10
2022-08-04T17:35:10.010Z,32.00
2022-08-04T17:37:53.278Z,32.60
2022-08-04T17:40:25.524Z,33.10
2022-08-04T17:44:02.825Z,33.70
2022-08-04T17:46:28.208Z,33.40
2022-08-04T17:49:01.486Z,32.50
2022-08-04T17:52:06.016Z,31.80
2022-08-04T17:54:39.005Z,31.50
2022-08-04T17:57:21.080Z,31.30
2022-08-04T17:59:59.519Z,30.90
2022-08-04T18:02:32.624Z,30.60
2022-08-04T18:05:11.896Z,30.30
2022-08-04T18:08:39.428Z,30.10
2022-08-04T18:10:55.093Z,29.80
2022-08-04T18:13:28.075Z,29.50
2022-08-04T18:16:14.504Z,29.30
2022-08-04T18:19:09.529Z,29.20
2022-08-04T18:21:46.094Z,29.00
2022-08-04T18:24:33.919Z,28.80
2022-08-04T18:27:06.550Z,28.60
2022-08-04T18:29:39.201Z,28.50
2022-08-04T18:32:10.353Z,28.30
2022-08-04T18:34:54.855Z,28.20
2022-08-04T18:38:03.757Z,28.00
2022-08-04T18:40:30.316Z,27.90
2022-08-04T18:43:03.607Z,27.70
2022-08-04T18:45:35.263Z,27.50
2022-08-04T18:48:14.644Z,27.50
2022-08-04T18:51:31.383Z,27.40
2022-08-04T18:54:29.697Z,27.30
2022-08-04T18:57:59.828Z,27.20
2022-08-04T19:03:54.629Z,27.00
2022-08-04T19:10:34.811Z,26.90
2022-08-04T19:13:39.773Z,26.70
2022-08-04T19:17:12.427Z,26.60
2022-08-04T19:20:24.077Z,26.50
2022-08-04T19:24:30.648Z,26.40
2022-08-04T19:26:02.550Z,26.30
2022-08-04T19:28:38.759Z,26.30
2022-08-04T19:31:11.232Z,26.20
2022-08-04T19:33:59.507Z,26.10
2022-08-04T19:36:34.866Z,26.00
2022-08-04T19:39:11.512Z,25.90
2022-08-04T19:42:05.897Z,25.90
2022-08-04T19:44:30.508Z,25.90
2022-08-04T19:47:00.746Z,25.80
2022-08-04T19:50:03.707Z,25.80
2022-08-04T19:52:33.941Z,25.70
2022-08-04T19:55:10.451Z,25.60
2022-08-04T19:57:46.194Z,25.50
2022-08-04T20:00:33.093Z,25.50
2022-08-04T20:03:03.849Z,25.40
2022-08-04T20:05:54.222Z,25.30
2022-08-04T20:08:28.669Z,25.20
2022-08-04T20:13:54.465Z,25.20
2022-08-04T20:19:14.195Z,25.00
2022-08-04T20:24:37.873Z,24.90
2022-08-04T20:27:15.578Z,24.80
2022-08-04T20:29:50.397Z,24.70
2022-08-04T20:32:22.067Z,24.80
2022-08-04T20:34:52.059Z,24.70
2022-08-04T20:37:23.167Z,24.80
2022-08-04T20:39:56.657Z,24.80
2022-08-04T20:42:34.210Z,24.80
2022-08-04T20:45:03.877Z,24.70
2022-08-04T20:47:34.957Z,24.80
2022-08-04T20:50:08.902Z,24.80
2022-08-04T20:52:39.593Z,24.90
2022-08-04T20:55:11.681Z,24.80
2022-08-04T20:57:49.762Z,24.70
2022-08-04T21:00:29.879Z,24.60
2022-08-04T21:02:59.214Z,24.50
2022-08-04T21:05:27.954Z,24.40
2022-08-04T21:07:57.347Z,24.40
2022-08-04T21:10:27.960Z,24.40
2022-08-04T21:12:57.548Z,24.40
2022-08-04T21:15:58.517Z,24.40
2022-08-04T21:18:16.993Z,24.40
2022-08-04T21:20:48.074Z,24.30
2022-08-04T21:23:16.928Z,24.20
2022-08-04T21:25:51.034Z,24.10
2022-08-04T21:28:20.768Z,24.10
2022-08-04T21:30:52.879Z,24.00
2022-08-04T21:33:24.618Z,24.00
2022-08-04T21:36:13.274Z,23.90
2022-08-04T21:38:51.299Z,23.80
2022-08-04T21:41:25.054Z,23.80
2022-08-04T21:43:56.430Z,23.80
2022-08-04T21:46:27.668Z,23.80
2022-08-04T21:48:59.449Z,23.80
2022-08-04T21:51:59.937Z,23.80
2022-08-04T21:54:25.357Z,23.70
2022-08-04T21:56:55.569Z,23.70
2022-08-04T21:59:30.456Z,23.70
2022-08-04T22:02:01.895Z,23.70
2022-08-04T22:04:31.189Z,23.70
2022-08-04T22:07:03.193Z,23.70
2022-08-04T22:09:41.141Z,23.70
2022-08-04T22:12:12.903Z,23.70
2022-08-04T22:14:50.458Z,23.60
2022-08-04T22:17:26.543Z,23.50
2022-08-04T22:20:04.633Z,23.20
2022-08-04T22:22:35.869Z,22.70
2022-08-04T22:25:13.326Z,22.30
2022-08-04T22:28:04.910Z,22.10
2022-08-04T22:30:38.287Z,22.00
2022-08-04T22:33:17.032Z,21.80
2022-08-04T22:35:49.357Z,21.50
2022-08-04T22:38:36.994Z,21.30
2022-08-04T22:41:10.253Z,21.00
2022-08-04T22:43:41.123Z,20.70
2022-08-04T22:46:12.085Z,20.40
2022-08-04T22:48:43.378Z,20.20
2022-08-04T22:51:13.529Z,20.00
2022-08-04T22:53:48.561Z,19.90
2022-08-04T22:56:37.520Z,19.90
2022-08-04T22:59:11.228Z,19.80
2022-08-04T23:02:00.435Z,19.70
2022-08-04T23:04:29.182Z,19.60
2022-08-04T23:06:57.990Z,19.50
2022-08-04T23:09:49.874Z,19.40
2022-08-04T23:12:24.597Z,19.40
2022-08-04T23:14:56.582Z,19.30
2022-08-04T23:17:27.341Z,19.30
2022-08-04T23:19:58.826Z,19.30
2022-08-04T23:22:41.786Z,19.30
2022-08-04T23:25:15.793Z,19.20
2022-08-04T23:27:50.997Z,19.30
2022-08-04T23:30:24.548Z,19.30
2022-08-04T23:32:54.413Z,19.30
2022-08-04T23:35:23.380Z,19.20
2022-08-04T23:37:57.673Z,19.20
2022-08-04T23:40:34.221Z,19.20
2022-08-04T23:43:17.274Z,19.20
2022-08-04T23:46:07.234Z,19.20
2022-08-04T23:48:37.134Z,19.20
2022-08-04T23:51:14.299Z,19.20
2022-08-04T23:54:01.574Z,19.10
2022-08-04T23:56:32.379Z,19.20
2022-08-04T23:59:03.690Z,19.20
